sensor_id;sensor_type;location;lat;lon;timestamp;pressure;altitude;pressure_sealevel;temperature;humidity
19884;BME280;10104;50.732;10.174;2022-12-29T00:00:40;97127.09;;;9.79;87.58
19884;BME280;10104;50.732;10.174;2022-12-29T00:03:02;97122.44;;;9.68;88.18
19884;BME280;10104;50.732;10.174;2022-12-29T00:05:23;97120.16;;;9.65;89.11
19884;BME280;10104;50.732;10.174;2022-12-29T00:07:45;97110.03;;;9.68;89.31
19884;BME280;10104;50.732;10.174;2022-12-29T00:10:07;97106.16;;;9.78;89.36
19884;BME280;10104;50.732;10.174;2022-12-29T00:12:29;97097.19;;;9.65;90.15
19884;BME280;10104;50.732;10.174;2022-12-29T00:15:10;97092.53;;;9.61;91.02
19884;BME280;10104;50.732;10.174;2022-12-29T00:17:50;97086.00;;;9.63;91.28
19884;BME280;10104;50.732;10.174;2022-12-29T00:20:12;97072.19;;;9.55;92.48
19884;BME280;10104;50.732;10.174;2022-12-29T00:22:53;97076.44;;;9.69;91.95
19884;BME280;10104;50.732;10.174;2022-12-29T00:25:35;97075.25;;;9.71;92.19
19884;BME280;10104;50.732;10.174;2022-12-29T00:28:15;97065.88;;;9.75;92.09
19884;BME280;10104;50.732;10.174;2022-12-29T00:31:00;97073.41;;;9.72;92.84
19884;BME280;10104;50.732;10.174;2022-12-29T00:33:40;97060.81;;;9.87;91.27
19884;BME280;10104;50.732;10.174;2022-12-29T00:36:37;97060.41;;;9.97;90.99
19884;BME280;10104;50.732;10.174;2022-12-29T00:39:03;97069.34;;;9.89;91.34
19884;BME280;10104;50.732;10.174;2022-12-29T00:41:47;97084.19;;;9.97;90.42
19884;BME280;10104;50.732;10.174;2022-12-29T00:44:28;97070.59;;;9.87;91.42
19884;BME280;10104;50.732;10.174;2022-12-29T00:46:49;97051.44;;;9.78;92.30
19884;BME280;10104;50.732;10.174;2022-12-29T00:49:12;97053.28;;;9.78;92.90
19884;BME280;10104;50.732;10.174;2022-12-29T00:51:53;97056.34;;;9.68;92.98
19884;BME280;10104;50.732;10.174;2022-12-29T00:54:16;97066.28;;;9.66;93.62
19884;BME280;10104;50.732;10.174;2022-12-29T00:56:38;97036.81;;;9.75;93.71
19884;BME280;10104;50.732;10.174;2022-12-29T00:59:05;97067.50;;;9.77;93.37
19884;BME280;10104;50.732;10.174;2022-12-29T01:01:27;97072.81;;;9.83;93.25
19884;BME280;10104;50.732;10.174;2022-12-29T01:03:49;97075.66;;;9.88;93.39
19884;BME280;10104;50.732;10.174;2022-12-29T01:06:11;97070.16;;;9.83;94.59
19884;BME280;10104;50.732;10.174;2022-12-29T01:08:35;97044.72;;;9.89;94.82
19884;BME280;10104;50.732;10.174;2022-12-29T01:11:04;97058.19;;;9.87;95.28
19884;BME280;10104;50.732;10.174;2022-12-29T01:13:25;97068.72;;;9.94;94.95
19884;BME280;10104;50.732;10.174;2022-12-29T01:15:54;97052.84;;;9.94;94.98
19884;BME280;10104;50.732;10.174;2022-12-29T01:18:15;97051.44;;;9.91;95.24
19884;BME280;10104;50.732;10.174;2022-12-29T01:20:38;97069.78;;;9.93;95.69
19884;BME280;10104;50.732;10.174;2022-12-29T01:22:59;97076.88;;;9.92;96.00
19884;BME280;10104;50.732;10.174;2022-12-29T01:25:21;97067.13;;;10.06;95.78
19884;BME280;10104;50.732;10.174;2022-12-29T01:27:42;97067.91;;;10.06;95.87
19884;BME280;10104;50.732;10.174;2022-12-29T01:30:04;97072.41;;;10.06;96.03
19884;BME280;10104;50.732;10.174;2022-12-29T01:32:26;97068.94;;;10.12;95.78
19884;BME280;10104;50.732;10.174;2022-12-29T01:34:47;97069.16;;;10.04;96.36
19884;BME280;10104;50.732;10.174;2022-12-29T01:37:09;97071.16;;;10.02;97.27
19884;BME280;10104;50.732;10.174;2022-12-29T01:39:30;97058.38;;;10.12;97.28
19884;BME280;10104;50.732;10.174;2022-12-29T01:41:52;97052.84;;;10.13;97.37
19884;BME280;10104;50.732;10.174;2022-12-29T01:47:53;97049.00;;;10.09;99.27
19884;BME280;10104;50.732;10.174;2022-12-29T01:50:25;97051.00;;;10.14;99.85
19884;BME280;10104;50.732;10.174;2022-12-29T01:52:55;97041.69;;;10.11;100.00
19884;BME280;10104;50.732;10.174;2022-12-29T01:55:17;97037.00;;;10.20;98.70
19884;BME280;10104;50.732;10.174;2022-12-29T01:57:41;97039.84;;;10.19;98.83
19884;BME280;10104;50.732;10.174;2022-12-29T02:00:08;97047.56;;;10.13;99.53
19884;BME280;10104;50.732;10.174;2022-12-29T02:02:31;97041.47;;;10.06;99.92
19884;BME280;10104;50.732;10.174;2022-12-29T02:04:55;97028.03;;;10.01;100.00
19884;BME280;10104;50.732;10.174;2022-12-29T02:07:26;97033.50;;;10.13;99.88
19884;BME280;10104;50.732;10.174;2022-12-29T02:09:50;97037.41;;;10.10;99.73
19884;BME280;10104;50.732;10.174;2022-12-29T02:12:12;97028.25;;;10.20;99.11
19884;BME280;10104;50.732;10.174;2022-12-29T02:14:34;97030.31;;;10.18;98.83
19884;BME280;10104;50.732;10.174;2022-12-29T02:17:09;97030.28;;;10.24;98.25
19884;BME280;10104;50.732;10.174;2022-12-29T02:22:30;97026.81;;;10.10;98.14
19884;BME280;10104;50.732;10.174;2022-12-29T02:25:27;97031.31;;;10.17;98.27
19884;BME280;10104;50.732;10.174;2022-12-29T02:27:50;97032.31;;;10.22;97.61
19884;BME280;10104;50.732;10.174;2022-12-29T02:38:50;97039.06;;;10.18;98.52
19884;BME280;10104;50.732;10.174;2022-12-29T02:41:20;97030.06;;;10.12;98.68
19884;BME280;10104;50.732;10.174;2022-12-29T02:43:51;97023.38;;;10.17;99.74
19884;BME280;10104;50.732;10.174;2022-12-29T02:46:20;97029.03;;;10.13;100.00
19884;BME280;10104;50.732;10.174;2022-12-29T02:48:54;97033.34;;;10.21;100.00
19884;BME280;10104;50.732;10.174;2022-12-29T02:51:24;97018.47;;;10.07;100.00
19884;BME280;10104;50.732;10.174;2022-12-29T02:53:48;97033.94;;;10.03;100.00
19884;BME280;10104;50.732;10.174;2022-12-29T02:56:28;97022.53;;;10.09;100.00
19884;BME280;10104;50.732;10.174;2022-12-29T02:58:50;97032.31;;;10.02;100.00
19884;BME280;10104;50.732;10.174;2022-12-29T03:01:24;97027.44;;;10.06;100.00
19884;BME280;10104;50.732;10.174;2022-12-29T03:06:40;97036.16;;;10.00;100.00
19884;BME280;10104;50.732;10.174;2022-12-29T03:11:48;97035.56;;;10.04;100.00
19884;BME280;10104;50.732;10.174;2022-12-29T03:14:37;97032.31;;;10.09;100.00
19884;BME280;10104;50.732;10.174;2022-12-29T03:18:01;97033.94;;;10.03;100.00
19884;BME280;10104;50.732;10.174;2022-12-29T03:20:27;97007.50;;;10.10;100.00
19884;BME280;10104;50.732;10.174;2022-12-29T03:22:56;97011.75;;;10.11;100.00
19884;BME280;10104;50.732;10.174;2022-12-29T03:25:25;97013.78;;;10.15;100.00
19884;BME280;10104;50.732;10.174;2022-12-29T03:27:51;97023.97;;;10.19;100.00
19884;BME280;10104;50.732;10.174;2022-12-29T03:30:14;97008.69;;;10.14;100.00
19884;BME280;10104;50.732;10.174;2022-12-29T03:32:46;97002.59;;;10.20;100.00
19884;BME280;10104;50.732;10.174;2022-12-29T03:35:11;96995.09;;;10.24;100.00
19884;BME280;10104;50.732;10.174;2022-12-29T03:37:37;96997.72;;;10.24;100.00
19884;BME280;10104;50.732;10.174;2022-12-29T03:40:00;96989.97;;;10.29;100.00
19884;BME280;10104;50.732;10.174;2022-12-29T03:42:25;96984.47;;;10.30;100.00
19884;BME280;10104;50.732;10.174;2022-12-29T03:44:47;97000.91;;;10.39;100.00
19884;BME280;10104;50.732;10.174;2022-12-29T03:47:14;96989.31;;;10.40;100.00
19884;BME280;10104;50.732;10.174;2022-12-29T03:49:35;96986.44;;;10.48;100.00
19884;BME280;10104;50.732;10.174;2022-12-29T03:51:57;96982.19;;;10.47;99.63
19884;BME280;10104;50.732;10.174;2022-12-29T03:54:18;96973.81;;;10.43;100.00
19884;BME280;10104;50.732;10.174;2022-12-29T03:56:40;96968.94;;;10.47;100.00
19884;BME280;10104;50.732;10.174;2022-12-29T03:59:01;96970.09;;;10.64;99.43
19884;BME280;10104;50.732;10.174;2022-12-29T04:01:23;96977.84;;;10.59;99.00
19884;BME280;10104;50.732;10.174;2022-12-29T04:03:45;96969.91;;;10.59;99.38
19884;BME280;10104;50.732;10.174;2022-12-29T04:06:07;96963.81;;;10.52;98.74
19884;BME280;10104;50.732;10.174;2022-12-29T04:08:29;96967.25;;;10.59;99.07
19884;BME280;10104;50.732;10.174;2022-12-29T04:10:50;96974.59;;;10.57;97.94
19884;BME280;10104;50.732;10.174;2022-12-29T04:13:12;96976.81;;;10.67;97.95
19884;BME280;10104;50.732;10.174;2022-12-29T04:15:34;96973.72;;;10.70;97.84
19884;BME280;10104;50.732;10.174;2022-12-29T04:17:56;96966.19;;;10.73;96.97
19884;BME280;10104;50.732;10.174;2022-12-29T04:20:17;96963.78;;;10.65;97.23
19884;BME280;10104;50.732;10.174;2022-12-29T04:23:03;96974.16;;;10.67;97.07
19884;BME280;10104;50.732;10.174;2022-12-29T04:25:26;96950.28;;;10.73;97.35
19884;BME280;10104;50.732;10.174;2022-12-29T04:27:47;96963.31;;;10.75;97.03
19884;BME280;10104;50.732;10.174;2022-12-29T04:30:09;96951.34;;;10.66;97.42
19884;BME280;10104;50.732;10.174;2022-12-29T04:32:31;96952.56;;;10.63;97.57
19884;BME280;10104;50.732;10.174;2022-12-29T04:34:52;96950.50;;;10.72;97.48
19884;BME280;10104;50.732;10.174;2022-12-29T04:37:14;96948.66;;;10.72;96.98
19884;BME280;10104;50.732;10.174;2022-12-29T04:39:35;96972.03;;;10.82;96.28
19884;BME280;10104;50.732;10.174;2022-12-29T04:41:56;96943.50;;;10.84;96.23
19884;BME280;10104;50.732;10.174;2022-12-29T04:44:18;96952.09;;;10.79;96.41
19884;BME280;10104;50.732;10.174;2022-12-29T04:46:39;96939.25;;;10.76;96.78
19884;BME280;10104;50.732;10.174;2022-12-29T04:49:01;96942.56;;;10.72;97.47
19884;BME280;10104;50.732;10.174;2022-12-29T04:51:29;96952.53;;;10.70;97.19
19884;BME280;10104;50.732;10.174;2022-12-29T04:53:50;96946.16;;;10.84;96.93
19884;BME280;10104;50.732;10.174;2022-12-29T04:56:12;96942.72;;;10.77;97.00
19884;BME280;10104;50.732;10.174;2022-12-29T04:58:33;96936.56;;;10.83;96.98
19884;BME280;10104;50.732;10.174;2022-12-29T05:00:54;96946.97;;;10.84;95.91
19884;BME280;10104;50.732;10.174;2022-12-29T05:03:16;96938.03;;;10.79;96.90
19884;BME280;10104;50.732;10.174;2022-12-29T05:05:38;96933.31;;;10.81;96.23
19884;BME280;10104;50.732;10.174;2022-12-29T05:08:00;96935.34;;;10.85;96.24
19884;BME280;10104;50.732;10.174;2022-12-29T05:10:21;96947.38;;;10.81;95.13
19884;BME280;10104;50.732;10.174;2022-12-29T05:12:43;96952.25;;;10.84;95.63
19884;BME280;10104;50.732;10.174;2022-12-29T05:15:05;96951.44;;;10.84;96.13
19884;BME280;10104;50.732;10.174;2022-12-29T05:17:28;96962.41;;;10.87;95.98
19884;BME280;10104;50.732;10.174;2022-12-29T05:19:50;96956.34;;;10.80;96.20
19884;BME280;10104;50.732;10.174;2022-12-29T05:22:11;96953.06;;;10.85;95.97
19884;BME280;10104;50.732;10.174;2022-12-29T05:24:34;96951.44;;;10.84;96.20
19884;BME280;10104;50.732;10.174;2022-12-29T05:26:56;96936.22;;;10.79;95.49
19884;BME280;10104;50.732;10.174;2022-12-29T05:29:17;96937.03;;;10.80;95.21
19884;BME280;10104;50.732;10.174;2022-12-29T05:31:39;96940.44;;;10.80;95.33
19884;BME280;10104;50.732;10.174;2022-12-29T05:34:01;96930.91;;;10.79;94.70
19884;BME280;10104;50.732;10.174;2022-12-29T05:36:22;96927.03;;;10.75;93.29
19884;BME280;10104;50.732;10.174;2022-12-29T05:38:44;96944.38;;;10.71;92.78
19884;BME280;10104;50.732;10.174;2022-12-29T05:41:06;96932.94;;;10.77;92.87
19884;BME280;10104;50.732;10.174;2022-12-29T05:43:27;96935.97;;;10.81;92.46
19884;BME280;10104;50.732;10.174;2022-12-29T05:45:49;96938.22;;;10.84;92.68
19884;BME280;10104;50.732;10.174;2022-12-29T05:48:11;96937.34;;;10.90;92.54
19884;BME280;10104;50.732;10.174;2022-12-29T05:50:32;96941.22;;;10.87;93.27
19884;BME280;10104;50.732;10.174;2022-12-29T05:52:54;96926.03;;;10.76;93.67
19884;BME280;10104;50.732;10.174;2022-12-29T05:55:15;96919.03;;;10.88;93.19
19884;BME280;10104;50.732;10.174;2022-12-29T05:57:38;96927.41;;;10.85;93.06
19884;BME280;10104;50.732;10.174;2022-12-29T06:00:00;96922.47;;;10.89;93.51
19884;BME280;10104;50.732;10.174;2022-12-29T06:02:21;96931.25;;;10.89;93.44
19884;BME280;10104;50.732;10.174;2022-12-29T06:04:43;96924.53;;;10.87;93.47
19884;BME280;10104;50.732;10.174;2022-12-29T06:07:04;96932.06;;;10.90;92.99
19884;BME280;10104;50.732;10.174;2022-12-29T06:09:26;96928.59;;;10.89;93.02
19884;BME280;10104;50.732;10.174;2022-12-29T06:11:48;96924.53;;;10.87;93.34
19884;BME280;10104;50.732;10.174;2022-12-29T06:14:09;96938.53;;;10.94;93.02
19884;BME280;10104;50.732;10.174;2022-12-29T06:16:31;96932.22;;;10.95;92.96
19884;BME280;10104;50.732;10.174;2022-12-29T06:18:52;96936.53;;;10.89;92.78
19884;BME280;10104;50.732;10.174;2022-12-29T06:21:14;96938.00;;;10.85;93.70
19884;BME280;10104;50.732;10.174;2022-12-29T06:23:35;96935.34;;;10.85;93.28
19884;BME280;10104;50.732;10.174;2022-12-29T06:25:57;96918.84;;;10.83;93.03
19884;BME280;10104;50.732;10.174;2022-12-29T06:28:18;96915.41;;;10.83;93.24
19884;BME280;10104;50.732;10.174;2022-12-29T06:30:43;96924.97;;;10.84;92.54
19884;BME280;10104;50.732;10.174;2022-12-29T06:33:05;96918.25;;;10.81;92.51
19884;BME280;10104;50.732;10.174;2022-12-29T06:35:26;96925.78;;;10.84;92.38
19884;BME280;10104;50.732;10.174;2022-12-29T06:37:48;96913.56;;;10.83;92.20
19884;BME280;10104;50.732;10.174;2022-12-29T06:40:10;96915.56;;;10.88;91.93
19884;BME280;10104;50.732;10.174;2022-12-29T06:42:33;96911.69;;;10.90;91.99
19884;BME280;10104;50.732;10.174;2022-12-29T06:44:54;96932.84;;;10.97;91.39
19884;BME280;10104;50.732;10.174;2022-12-29T06:47:18;96933.81;;;11.03;91.49
19884;BME280;10104;50.732;10.174;2022-12-29T06:49:40;96943.16;;;11.05;91.23
19884;BME280;10104;50.732;10.174;2022-12-29T06:52:02;96929.69;;;11.07;90.91
19884;BME280;10104;50.732;10.174;2022-12-29T06:54:32;96926.63;;;11.10;90.88
19884;BME280;10104;50.732;10.174;2022-12-29T06:56:54;96948.03;;;11.08;91.13
19884;BME280;10104;50.732;10.174;2022-12-29T06:59:15;96935.41;;;11.10;91.24
19884;BME280;10104;50.732;10.174;2022-12-29T07:01:37;96938.03;;;11.10;90.94
19884;BME280;10104;50.732;10.174;2022-12-29T07:03:59;96942.56;;;11.03;91.39
19884;BME280;10104;50.732;10.174;2022-12-29T07:06:21;96934.63;;;11.03;91.32
19884;BME280;10104;50.732;10.174;2022-12-29T07:08:42;96938.25;;;11.09;91.54
19884;BME280;10104;50.732;10.174;2022-12-29T07:11:05;96929.13;;;11.05;90.86
19884;BME280;10104;50.732;10.174;2022-12-29T07:13:26;96938.66;;;11.06;91.37
19884;BME280;10104;50.732;10.174;2022-12-29T07:15:48;96955.38;;;11.06;91.19
19884;BME280;10104;50.732;10.174;2022-12-29T07:18:09;96950.06;;;11.06;91.10
19884;BME280;10104;50.732;10.174;2022-12-29T07:20:31;96936.63;;;11.08;90.98
19884;BME280;10104;50.732;10.174;2022-12-29T07:22:53;96936.81;;;11.06;91.31
19884;BME280;10104;50.732;10.174;2022-12-29T07:25:14;96947.22;;;11.08;91.09
19884;BME280;10104;50.732;10.174;2022-12-29T07:27:37;96938.09;;;11.04;91.19
19884;BME280;10104;50.732;10.174;2022-12-29T07:29:59;96946.16;;;11.15;90.34
19884;BME280;10104;50.732;10.174;2022-12-29T07:32:20;96937.81;;;11.12;91.32
19884;BME280;10104;50.732;10.174;2022-12-29T07:34:42;96946.56;;;11.12;90.45
19884;BME280;10104;50.732;10.174;2022-12-29T07:37:06;96947.59;;;11.11;91.17
19884;BME280;10104;50.732;10.174;2022-12-29T07:39:28;96944.72;;;11.13;91.77
19884;BME280;10104;50.732;10.174;2022-12-29T07:41:49;96940.09;;;11.08;91.54
19884;BME280;10104;50.732;10.174;2022-12-29T07:44:10;96929.28;;;11.10;91.00
19884;BME280;10104;50.732;10.174;2022-12-29T07:46:32;96945.38;;;11.08;91.66
19884;BME280;10104;50.732;10.174;2022-12-29T07:49:14;96935.44;;;11.04;91.02
19884;BME280;10104;50.732;10.174;2022-12-29T07:51:35;96925.81;;;11.09;91.39
19884;BME280;10104;50.732;10.174;2022-12-29T07:53:57;96937.00;;;11.11;91.02
19884;BME280;10104;50.732;10.174;2022-12-29T07:56:20;96926.34;;;11.18;90.72
19884;BME280;10104;50.732;10.174;2022-12-29T07:58:42;96919.59;;;11.22;90.70
19884;BME280;10104;50.732;10.174;2022-12-29T08:01:03;96925.94;;;11.21;90.70
19884;BME280;10104;50.732;10.174;2022-12-29T08:03:26;96923.13;;;11.16;92.97
19884;BME280;10104;50.732;10.174;2022-12-29T08:05:49;96917.66;;;11.11;93.63
19884;BME280;10104;50.732;10.174;2022-12-29T08:08:10;96927.50;;;11.04;94.17
19884;BME280;10104;50.732;10.174;2022-12-29T08:10:32;96936.41;;;11.09;94.60
19884;BME280;10104;50.732;10.174;2022-12-29T08:12:53;96936.09;;;10.92;94.57
19884;BME280;10104;50.732;10.174;2022-12-29T08:15:14;96926.28;;;11.00;95.21
19884;BME280;10104;50.732;10.174;2022-12-29T08:17:36;96938.09;;;11.04;94.58
19884;BME280;10104;50.732;10.174;2022-12-29T08:19:58;96934.63;;;11.03;94.58
19884;BME280;10104;50.732;10.174;2022-12-29T08:22:20;96925.66;;;11.04;93.71
19884;BME280;10104;50.732;10.174;2022-12-29T08:24:41;96942.47;;;11.16;93.73
19884;BME280;10104;50.732;10.174;2022-12-29T08:27:03;96933.31;;;11.12;92.21
19884;BME280;10104;50.732;10.174;2022-12-29T08:29:33;96945.38;;;11.08;93.30
19884;BME280;10104;50.732;10.174;2022-12-29T08:31:54;96946.16;;;11.15;92.95
19884;BME280;10104;50.732;10.174;2022-12-29T08:34:16;96945.59;;;11.07;92.82
19884;BME280;10104;50.732;10.174;2022-12-29T08:36:37;96940.09;;;11.08;92.56
19884;BME280;10104;50.732;10.174;2022-12-29T08:38:59;96947.16;;;11.14;92.70
19884;BME280;10104;50.732;10.174;2022-12-29T08:41:21;96954.69;;;11.17;91.07
19884;BME280;10104;50.732;10.174;2022-12-29T08:43:47;96966.44;;;11.28;91.26
19884;BME280;10104;50.732;10.174;2022-12-29T08:46:09;96964.25;;;11.18;91.82
19884;BME280;10104;50.732;10.174;2022-12-29T08:48:30;96958.69;;;11.26;91.65
19884;BME280;10104;50.732;10.174;2022-12-29T08:50:52;96950.72;;;11.33;91.59
19884;BME280;10104;50.732;10.174;2022-12-29T08:53:14;96958.59;;;11.40;90.27
19884;BME280;10104;50.732;10.174;2022-12-29T08:55:35;96970.47;;;11.30;90.39
19884;BME280;10104;50.732;10.174;2022-12-29T08:57:57;96967.69;;;11.25;90.87
19884;BME280;10104;50.732;10.174;2022-12-29T09:00:18;96976.88;;;11.23;90.52
19884;BME280;10104;50.732;10.174;2022-12-29T09:02:41;96978.88;;;11.27;90.29
19884;BME280;10104;50.732;10.174;2022-12-29T09:05:03;96964.59;;;11.28;89.84
19884;BME280;10104;50.732;10.174;2022-12-29T09:07:25;96982.50;;;11.33;90.24
19884;BME280;10104;50.732;10.174;2022-12-29T09:09:47;96971.69;;;11.34;89.95
19884;BME280;10104;50.732;10.174;2022-12-29T09:12:08;96970.22;;;11.39;89.61
19884;BME280;10104;50.732;10.174;2022-12-29T09:14:30;96971.47;;;11.36;89.04
19884;BME280;10104;50.732;10.174;2022-12-29T09:16:52;96967.53;;;11.45;88.61
19884;BME280;10104;50.732;10.174;2022-12-29T09:19:32;96975.47;;;11.45;87.83
19884;BME280;10104;50.732;10.174;2022-12-29T09:21:54;96984.91;;;11.41;87.48
19884;BME280;10104;50.732;10.174;2022-12-29T09:24:15;96977.31;;;11.45;88.43
19884;BME280;10104;50.732;10.174;2022-12-29T09:26:36;96973.53;;;11.59;86.95
19884;BME280;10104;50.732;10.174;2022-12-29T09:29:06;96964.16;;;11.56;86.89
19884;BME280;10104;50.732;10.174;2022-12-29T09:31:28;96969.25;;;11.58;86.64
19884;BME280;10104;50.732;10.174;2022-12-29T09:33:50;96994.75;;;11.59;86.99
19884;BME280;10104;50.732;10.174;2022-12-29T09:36:11;96985.53;;;11.61;86.41
19884;BME280;10104;50.732;10.174;2022-12-29T09:38:32;96980.41;;;11.66;86.28
19884;BME280;10104;50.732;10.174;2022-12-29T09:40:57;96969.56;;;11.68;86.98
19884;BME280;10104;50.732;10.174;2022-12-29T09:45:56;96979.44;;;11.86;84.90
19884;BME280;10104;50.732;10.174;2022-12-29T09:48:27;96980.34;;;11.98;84.86
19884;BME280;10104;50.732;10.174;2022-12-29T09:50:54;96985.28;;;11.94;83.24
19884;BME280;10104;50.732;10.174;2022-12-29T09:53:26;96994.50;;;12.10;83.72
19884;BME280;10104;50.732;10.174;2022-12-29T09:55:52;96985.66;;;11.98;84.98
19884;BME280;10104;50.732;10.174;2022-12-29T09:58:32;96966.88;;;12.18;85.43
19884;BME280;10104;50.732;10.174;2022-12-29T10:01:07;96970.72;;;12.22;84.94
19884;BME280;10104;50.732;10.174;2022-12-29T10:03:47;96989.00;;;12.30;85.03
19884;BME280;10104;50.732;10.174;2022-12-29T10:06:13;96983.31;;;12.26;84.84
19884;BME280;10104;50.732;10.174;2022-12-29T10:08:44;96975.16;;;12.46;84.42
19884;BME280;10104;50.732;10.174;2022-12-29T10:11:10;96991.44;;;12.49;82.90
19884;BME280;10104;50.732;10.174;2022-12-29T10:14:06;96993.34;;;12.24;83.65
19884;BME280;10104;50.732;10.174;2022-12-29T10:21:59;96990.38;;;11.96;85.31
19884;BME280;10104;50.732;10.174;2022-12-29T10:24:22;96983.00;;;11.98;87.85
19884;BME280;10104;50.732;10.174;2022-12-29T10:26:45;96984.34;;;12.07;86.73
19884;BME280;10104;50.732;10.174;2022-12-29T10:29:19;96982.19;;;11.97;87.77
19884;BME280;10104;50.732;10.174;2022-12-29T10:31:48;96984.75;;;11.86;87.28
19884;BME280;10104;50.732;10.174;2022-12-29T10:37:02;96995.13;;;11.87;85.15
19884;BME280;10104;50.732;10.174;2022-12-29T10:39:37;96984.44;;;11.75;88.10
19884;BME280;10104;50.732;10.174;2022-12-29T10:44:42;96974.66;;;11.94;86.66
19884;BME280;10104;50.732;10.174;2022-12-29T10:47:08;96993.47;;;12.11;85.53
19884;BME280;10104;50.732;10.174;2022-12-29T10:49:36;96992.78;;;12.40;85.86
19884;BME280;10104;50.732;10.174;2022-12-29T10:52:02;96975.78;;;12.23;83.41
19884;BME280;10104;50.732;10.174;2022-12-29T10:54:42;96992.59;;;12.17;85.32
19884;BME280;10104;50.732;10.174;2022-12-29T10:57:16;96988.03;;;12.42;86.51
19884;BME280;10104;50.732;10.174;2022-12-29T10:59:42;96989.19;;;12.28;87.29
19884;BME280;10104;50.732;10.174;2022-12-29T11:07:12;96992.75;;;11.79;90.16
19884;BME280;10104;50.732;10.174;2022-12-29T11:09:39;96998.13;;;11.72;90.61
19884;BME280;10104;50.732;10.174;2022-12-29T11:12:20;96991.53;;;11.82;89.75
19884;BME280;10104;50.732;10.174;2022-12-29T11:14:42;97002.00;;;11.70;88.16
19884;BME280;10104;50.732;10.174;2022-12-29T11:17:04;97002.06;;;11.63;89.12
19884;BME280;10104;50.732;10.174;2022-12-29T11:19:28;97011.72;;;11.51;87.79
19884;BME280;10104;50.732;10.174;2022-12-29T11:21:51;97015.19;;;11.52;88.31
19884;BME280;10104;50.732;10.174;2022-12-29T11:26:43;97001.19;;;11.45;87.18
19884;BME280;10104;50.732;10.174;2022-12-29T11:31:29;97013.09;;;11.35;89.55
19884;BME280;10104;50.732;10.174;2022-12-29T11:33:50;97011.50;;;11.28;90.23
19884;BME280;10104;50.732;10.174;2022-12-29T11:36:23;97019.13;;;11.43;91.81
19884;BME280;10104;50.732;10.174;2022-12-29T11:38:51;97008.03;;;11.27;92.87
19884;BME280;10104;50.732;10.174;2022-12-29T11:41:20;97026.13;;;11.30;91.34
19884;BME280;10104;50.732;10.174;2022-12-29T11:43:43;97008.06;;;11.21;94.07
19884;BME280;10104;50.732;10.174;2022-12-29T11:46:06;96994.34;;;11.30;94.41
19884;BME280;10104;50.732;10.174;2022-12-29T11:48:31;97002.38;;;11.17;94.33
19884;BME280;10104;50.732;10.174;2022-12-29T11:50:57;97009.78;;;11.40;93.00
19884;BME280;10104;50.732;10.174;2022-12-29T11:53:26;97019.22;;;11.29;93.33
19884;BME280;10104;50.732;10.174;2022-12-29T11:55:54;97008.06;;;11.21;92.59
19884;BME280;10104;50.732;10.174;2022-12-29T11:58:17;97002.13;;;11.25;92.69
19884;BME280;10104;50.732;10.174;2022-12-29T12:00:38;97006.31;;;11.40;92.94
19884;BME280;10104;50.732;10.174;2022-12-29T12:03:03;97013.44;;;11.39;92.91
19884;BME280;10104;50.732;10.174;2022-12-29T12:05:35;97003.81;;;11.45;92.31
19884;BME280;10104;50.732;10.174;2022-12-29T12:08:04;97007.38;;;11.32;92.38
19884;BME280;10104;50.732;10.174;2022-12-29T12:10:34;97014.97;;;11.28;93.12
19884;BME280;10104;50.732;10.174;2022-12-29T12:13:30;97003.53;;;11.28;92.17
19884;BME280;10104;50.732;10.174;2022-12-29T12:16:04;97013.44;;;11.39;91.08
19884;BME280;10104;50.732;10.174;2022-12-29T12:18:57;97005.44;;;11.46;88.28
19884;BME280;10104;50.732;10.174;2022-12-29T12:24:00;97001.03;;;11.64;85.65
19884;BME280;10104;50.732;10.174;2022-12-29T12:26:36;97005.41;;;11.52;88.22
19884;BME280;10104;50.732;10.174;2022-12-29T12:29:16;97003.06;;;11.62;86.02
19884;BME280;10104;50.732;10.174;2022-12-29T12:31:55;97006.84;;;11.48;85.48
19884;BME280;10104;50.732;10.174;2022-12-29T12:34:40;97010.44;;;11.35;83.73
19884;BME280;10104;50.732;10.174;2022-12-29T12:42:41;97007.50;;;11.44;84.77
19884;BME280;10104;50.732;10.174;2022-12-29T12:59:18;97027.06;;;11.43;82.49
19884;BME280;10104;50.732;10.174;2022-12-29T13:01:57;97031.97;;;11.46;81.93
19884;BME280;10104;50.732;10.174;2022-12-29T13:07:15;97034.44;;;11.41;82.51
19884;BME280;10104;50.732;10.174;2022-12-29T13:12:29;97042.38;;;11.09;83.25
19884;BME280;10104;50.732;10.174;2022-12-29T13:17:30;97065.59;;;11.14;82.49
19884;BME280;10104;50.732;10.174;2022-12-29T13:30:15;97060.22;;;11.27;81.61
19884;BME280;10104;50.732;10.174;2022-12-29T13:33:10;97065.94;;;11.24;81.29
19884;BME280;10104;50.732;10.174;2022-12-29T13:38:20;97046.19;;;11.20;79.28
19884;BME280;10104;50.732;10.174;2022-12-29T13:40:46;97064.13;;;11.18;79.22
19884;BME280;10104;50.732;10.174;2022-12-29T13:43:11;97062.31;;;11.12;79.50
19884;BME280;10104;50.732;10.174;2022-12-29T13:45:34;97062.75;;;11.09;79.40
19884;BME280;10104;50.732;10.174;2022-12-29T13:48:07;97064.91;;;11.25;78.14
19884;BME280;10104;50.732;10.174;2022-12-29T13:50:35;97060.41;;;11.25;78.07
19884;BME280;10104;50.732;10.174;2022-12-29T13:55:39;97073.19;;;11.42;76.11
19884;BME280;10104;50.732;10.174;2022-12-29T13:58:09;97078.09;;;11.38;76.57
19884;BME280;10104;50.732;10.174;2022-12-29T14:03:43;97074.53;;;11.51;77.54
19884;BME280;10104;50.732;10.174;2022-12-29T14:06:14;97070.94;;;11.39;77.02
19884;BME280;10104;50.732;10.174;2022-12-29T14:08:36;97085.28;;;11.24;77.84
19884;BME280;10104;50.732;10.174;2022-12-29T14:11:09;97073.88;;;11.24;77.25
19884;BME280;10104;50.732;10.174;2022-12-29T14:13:38;97073.50;;;11.20;78.97
19884;BME280;10104;50.732;10.174;2022-12-29T14:16:00;97068.97;;;11.27;78.86